Time;durP1;ratioP1;P1;durP2;ratioP2;P2;SDS_P1;SDS_P2;PMS_P1;PMS_P2;Temp;Humidity;BMP_temperature;BMP_pressure;BME280_temperature;BME280_humidity;BME280_pressure;Samples;Min_cycle;Max_cycle;Signal;HPM_P1;HPM_P2
2021/10/22 15:32:23;;;;;;;9.65;2.20;;;;;;;15.83;35.58;99842.87;1812292;77;25359;-71
2021/10/22 15:34:52;;;;;;;15.13;3.22;;;;;;;15.60;35.99;99848.98;1810459;78;21126;-71
2021/10/22 15:37:21;;;;;;;10.28;1.85;;;;;;;15.48;36.56;99849.81;1798360;78;21161;-71
2021/10/22 15:39:50;;;;;;;6.95;2.30;;;;;;;15.37;36.26;99858.11;1778151;79;21145;-71
2021/10/22 15:42:19;;;;;;;8.20;1.98;;;;;;;15.20;36.36;99864.37;1783376;79;21185;-72
2021/10/22 15:44:52;;;;;;;4.05;1.80;;;;;;;15.07;36.54;99860.48;1760818;80;21308;-71
2021/10/22 15:47:28;;;;;;;8.73;2.08;;;;;;;14.95;36.37;99876.16;1789476;80;21604;-69
2021/10/22 15:49:58;;;;;;;9.68;2.20;;;;;;;14.84;36.95;99871.48;1792783;80;21150;-69
2021/10/22 15:55:34;;;;;;;8.30;2.27;;;;;;;14.68;37.20;99875.78;1761754;81;21113;-68
2021/10/22 15:58:08;;;;;;;5.72;2.00;;;;;;;14.53;37.26;99880.36;1761628;81;21205;-70
2021/10/22 16:00:37;;;;;;;10.78;3.02;;;;;;;14.41;37.40;99878.63;1761854;81;21117;-70
2021/10/22 16:03:06;;;;;;;12.47;2.72;;;;;;;14.35;37.80;99886.45;1762097;81;21236;-70
2021/10/22 16:05:37;;;;;;;7.75;2.15;;;;;;;14.29;38.03;99886.28;1761428;81;21172;-69
2021/10/22 16:10:52;;;;;;;11.05;3.27;;;;;;;14.23;38.39;99895.48;1738405;79;21573;-72
2021/10/22 16:13:13;;;;;;;10.60;2.40;;;;;;;14.13;38.79;99891.62;1775692;80;21169;-72
2021/10/22 16:15:52;;;;;;;11.78;2.15;;;;;;;14.06;38.78;99896.38;1765327;79;21138;-70
2021/10/22 16:18:15;;;;;;;14.47;3.55;;;;;;;13.95;38.95;99898.84;1779414;79;21154;-69
2021/10/22 16:23:53;;;;;;;7.40;2.37;;;;;;;13.90;38.91;99902.83;1791921;79;21142;-77
2021/10/22 16:26:22;;;;;;;9.75;2.77;;;;;;;13.87;39.32;99901.92;1791720;80;21177;-73
2021/10/22 16:28:51;;;;;;;11.60;2.90;;;;;;;13.87;39.22;99903.30;1782726;80;21181;-73
2021/10/22 16:31:19;;;;;;;7.28;2.67;;;;;;;13.87;39.65;99914.31;1762310;81;21169;-74
2021/10/22 16:36:16;;;;;;;10.53;3.25;;;;;;;13.89;39.19;99905.28;1766639;81;21287;-74
2021/10/22 16:38:45;;;;;;;13.68;3.70;;;;;;;13.91;39.35;99914.69;1766453;81;21177;-75
2021/10/22 16:41:15;;;;;;;11.53;3.95;;;;;;;13.92;39.45;99912.24;1778795;80;21432;-76
2021/10/22 16:43:43;;;;;;;11.97;3.80;;;;;;;13.93;39.33;99913.92;1792878;78;21125;-75
2021/10/22 16:46:12;;;;;;;12.33;3.80;;;;;;;13.95;39.25;99920.05;1802145;79;21110;-74
2021/10/22 16:48:41;;;;;;;9.35;3.58;;;;;;;13.94;39.31;99918.36;1803772;79;21275;-75
2021/10/22 16:51:10;;;;;;;9.93;3.87;;;;;;;13.94;39.28;99912.84;1803303;79;21698;-75
2021/10/22 16:53:40;;;;;;;12.07;3.65;;;;;;;13.94;39.16;99914.23;1802442;78;21137;-77
2021/10/22 16:56:08;;;;;;;8.98;3.47;;;;;;;13.93;39.94;99916.67;1820623;79;21161;-75
2021/10/22 17:25:48;;;;;;;8.05;3.22;;;;;;;13.79;39.33;99917.91;1792986;80;21067;-76
2021/10/22 17:28:17;;;;;;;7.33;2.65;;;;;;;13.75;39.37;99925.80;1792860;80;21268;-76
2021/10/22 17:30:45;;;;;;;10.25;3.25;;;;;;;13.71;39.24;99921.82;1792440;79;21584;-76
2021/10/22 17:33:14;;;;;;;9.03;2.70;;;;;;;13.68;39.48;99923.66;1784318;80;21150;-76
2021/10/22 17:35:44;;;;;;;11.90;3.27;;;;;;;13.67;39.67;99933.52;1784126;79;21206;-75
2021/10/22 17:38:13;;;;;;;12.55;3.25;;;;;;;13.65;39.53;99929.59;1784583;80;21114;-77
2021/10/22 17:40:42;;;;;;;10.20;3.30;;;;;;;13.62;39.84;99928.14;1784307;80;21181;-74
2021/10/22 17:43:11;;;;;;;10.15;3.00;;;;;;;13.62;40.04;99921.25;1784145;80;21686;-76
2021/10/22 17:45:41;;;;;;;9.35;2.77;;;;;;;13.57;39.96;99918.34;1784198;79;21083;-76
2021/10/22 17:48:10;;;;;;;10.90;3.17;;;;;;;13.52;40.26;99915.44;1784606;80;21178;-75
2021/10/22 17:50:40;;;;;;;11.90;3.50;;;;;;;13.48;40.46;99919.72;1784535;80;21612;-73
2021/10/22 17:53:10;;;;;;;9.10;3.35;;;;;;;13.45;40.58;99918.80;1741203;80;21549;-75
2021/10/22 17:55:40;;;;;;;8.93;2.92;;;;;;;13.40;40.89;99920.02;1754029;80;21165;-73
2021/10/22 17:58:11;;;;;;;9.18;2.87;;;;;;;13.35;41.01;99925.37;1785156;80;21162;-76
2021/10/22 18:00:39;;;;;;;10.48;3.30;;;;;;;13.29;41.27;99924.90;1793868;79;21094;-74
2021/10/22 18:03:10;;;;;;;7.65;3.60;;;;;;;13.19;41.44;99923.20;1810753;78;21206;-75
2021/10/22 18:05:40;;;;;;;9.65;3.98;;;;;;;13.09;41.37;99919.56;1792604;79;21185;-76
2021/10/22 18:08:10;;;;;;;11.43;5.17;;;;;;;13.05;41.61;99917.48;1784300;80;21226;-74
2021/10/22 18:10:41;;;;;;;11.95;5.45;;;;;;;12.99;41.88;99924.16;1784167;80;21727;-75
2021/10/22 18:13:13;;;;;;;17.77;5.78;;;;;;;12.93;42.21;99922.84;1784265;80;21127;-75
2021/10/22 18:15:42;;;;;;;18.00;6.72;;;;;;;12.85;42.45;99926.72;1679554;85;21186;-74
2021/10/22 18:18:11;;;;;;;21.95;6.87;;;;;;;12.77;42.66;99927.53;1709276;84;21171;-74
2021/10/22 18:20:43;;;;;;;24.50;8.83;;;;;;;12.69;42.91;99928.65;1691932;82;21400;-74
2021/10/22 18:23:11;;;;;;;18.17;6.55;;;;;;;12.64;43.04;99918.33;1685659;84;21728;-75
2021/10/22 18:25:40;;;;;;;19.27;7.08;;;;;;;12.61;43.08;99928.39;1692267;85;21227;-74
2021/10/22 18:28:12;;;;;;;19.92;7.35;;;;;;;12.56;43.22;99926.00;1708883;84;21246;-75
2021/10/22 18:30:40;;;;;;;23.00;7.42;;;;;;;12.51;43.36;99933.53;1692103;85;21636;-74
2021/10/22 18:33:09;;;;;;;19.57;8.35;;;;;;;12.44;43.65;99938.23;1707867;81;21161;-75
2021/10/22 18:35:38;;;;;;;23.90;8.15;;;;;;;12.38;43.82;99933.09;1749057;82;21599;-75
2021/10/22 18:38:06;;;;;;;19.48;7.60;;;;;;;12.35;43.86;99937.66;1764513;81;21216;-74
2021/10/22 18:40:37;;;;;;;19.27;6.95;;;;;;;12.34;43.93;99931.81;1748693;82;21319;-73
2021/10/22 18:43:05;;;;;;;20.25;7.30;;;;;;;12.37;43.75;99932.78;1764600;81;21211;-74
2021/10/22 18:45:35;;;;;;;19.07;6.40;;;;;;;12.41;43.51;99932.34;1748913;82;21130;-74
2021/10/22 18:48:07;;;;;;;18.25;6.28;;;;;;;12.44;43.53;99935.48;1764456;81;21140;-74
2021/10/22 18:50:34;;;;;;;15.75;6.17;;;;;;;12.47;43.45;99941.07;1764747;81;21144;-74
2021/10/22 18:53:03;;;;;;;14.23;5.67;;;;;;;12.50;43.41;99940.63;1764529;80;21184;-76
2021/10/22 18:55:32;;;;;;;12.58;5.42;;;;;;;12.50;43.32;99940.09;1764364;81;21211;-76
2021/10/22 18:58:01;;;;;;;17.48;6.00;;;;;;;12.52;43.23;99941.25;1749049;82;21138;-75
2021/10/22 19:00:31;;;;;;;12.70;5.40;;;;;;;12.51;43.28;99945.90;1764732;81;21113;-74
2021/10/22 19:03:02;;;;;;;18.50;6.78;;;;;;;12.53;43.19;99951.17;1749095;82;21206;-74
2021/10/22 19:05:33;;;;;;;17.57;5.78;;;;;;;12.53;43.14;99942.94;1784441;80;21129;-74
2021/10/22 19:08:02;;;;;;;15.48;6.20;;;;;;;12.53;43.14;99940.19;1779802;80;21272;-77
2021/10/22 19:10:32;;;;;;;15.28;6.25;;;;;;;12.52;43.19;99936.59;1796106;80;21192;-75
2021/10/22 19:13:01;;;;;;;16.40;6.70;;;;;;;12.52;43.19;99931.09;1796066;80;21160;-74
2021/10/22 19:15:33;;;;;;;15.48;6.08;;;;;;;12.53;43.13;99931.94;1779600;80;21178;-75
2021/10/22 19:18:02;;;;;;;15.65;6.35;;;;;;;12.51;43.11;99925.83;1764698;81;21176;-77
2021/10/22 19:20:33;;;;;;;18.75;6.83;;;;;;;12.48;43.16;99928.48;1741713;80;21145;-73
2021/10/22 19:23:02;;;;;;;14.53;6.45;;;;;;;12.48;43.27;99940.00;1796031;78;21182;-79
2021/10/22 19:25:32;;;;;;;16.60;7.05;;;;;;;12.47;43.25;99941.07;1796071;80;21129;-75
2021/10/22 19:28:04;;;;;;;20.88;6.80;;;;;;;12.46;43.39;99936.64;1795892;80;21152;-75
2021/10/22 19:30:34;;;;;;;17.75;6.50;;;;;;;12.47;43.41;99935.58;1796020;80;21810;-75
2021/10/22 19:33:02;;;;;;;21.55;6.33;;;;;;;12.49;43.41;99938.41;1789388;78;21557;-75
2021/10/22 19:35:32;;;;;;;19.62;7.40;;;;;;;12.49;43.46;99938.94;1787551;80;21591;-77
2021/10/22 19:38:01;;;;;;;16.35;6.42;;;;;;;12.49;43.51;99938.94;1787487;80;21165;-75
2021/10/22 19:40:30;;;;;;;15.30;6.30;;;;;;;12.48;43.56;99943.59;1787621;80;21248;-76
2021/10/22 19:42:59;;;;;;;18.23;6.30;;;;;;;12.49;43.58;99941.69;1787408;80;21568;-75
2021/10/22 19:45:30;;;;;;;16.37;5.65;;;;;;;12.49;43.63;99939.78;1787565;80;21596;-75
2021/10/22 19:47:58;;;;;;;13.85;5.22;;;;;;;12.49;43.60;99937.57;1787584;80;21137;-73
2021/10/22 19:50:30;;;;;;;10.88;4.22;;;;;;;12.47;43.60;99930.92;1787417;80;21176;-75
2021/10/22 19:52:58;;;;;;;11.70;4.70;;;;;;;12.47;43.64;99938.32;1787412;80;21652;-76
2021/10/22 19:55:27;;;;;;;16.20;4.90;;;;;;;12.43;43.65;99930.21;1787445;80;21667;-76
2021/10/22 19:57:56;;;;;;;9.98;4.47;;;;;;;12.40;43.74;99925.16;1787419;80;21573;-75
2021/10/22 20:00:25;;;;;;;10.25;4.55;;;;;;;12.40;43.80;99927.38;1787459;79;21279;-76
2021/10/22 20:02:53;;;;;;;11.97;4.65;;;;;;;12.41;43.81;99931.80;1787481;80;21180;-73
2021/10/22 20:05:22;;;;;;;16.32;5.60;;;;;;;12.42;43.75;99927.16;1771126;80;21185;-74
2021/10/22 20:07:51;;;;;;;14.13;5.45;;;;;;;12.43;43.80;99930.21;1758763;81;21115;-75
2021/10/22 20:10:20;;;;;;;12.40;4.95;;;;;;;12.41;43.81;99921.34;1759011;81;21566;-74
2021/10/22 20:12:50;;;;;;;15.50;5.35;;;;;;;12.38;43.83;99920.73;1758910;81;21156;-74
2021/10/22 20:15:19;;;;;;;12.65;4.80;;;;;;;12.34;43.95;99916.70;1778756;80;21312;-75
2021/10/22 20:17:49;;;;;;;13.78;5.25;;;;;;;12.32;44.12;99916.09;1783422;80;21514;-75
2021/10/22 20:20:18;;;;;;;13.88;6.28;;;;;;;12.30;44.27;99911.34;1785206;79;21136;-74
2021/10/22 20:22:47;;;;;;;16.10;5.45;;;;;;;12.28;44.28;99916.22;1783398;80;21690;-74
2021/10/22 20:25:15;;;;;;;14.55;6.05;;;;;;;12.28;44.33;99918.97;1757185;80;21248;-75
2021/10/22 20:27:44;;;;;;;14.73;6.55;;;;;;;12.26;44.55;99915.59;1783485;80;21242;-74
2021/10/22 20:30:16;;;;;;;16.75;7.40;;;;;;;12.23;44.64;99911.08;1785117;79;21265;-74
2021/10/22 20:32:43;;;;;;;19.57;6.80;;;;;;;12.23;44.66;99913.29;1795490;79;21166;-74
2021/10/22 20:35:12;;;;;;;15.93;6.08;;;;;;;12.19;44.84;99912.05;1826566;78;21717;-72
2021/10/22 20:37:41;;;;;;;18.45;5.95;;;;;;;12.15;45.06;99911.33;1827019;78;21157;-76
2021/10/22 20:40:12;;;;;;;15.88;5.65;;;;;;;12.05;45.21;99916.77;1826794;78;21106;-74
2021/10/22 20:42:41;;;;;;;14.65;6.95;;;;;;;11.94;45.52;99907.85;1826656;78;21094;-75
2021/10/22 20:45:10;;;;;;;15.28;6.22;;;;;;;11.81;45.82;99908.44;1826673;78;21135;-75
2021/10/22 20:47:40;;;;;;;21.07;6.53;;;;;;;11.69;45.98;99909.06;1826604;78;21204;-75
2021/10/22 20:58:12;;;;;;;17.55;6.72;;;;;;;11.32;47.21;99914.77;1826771;78;21396;-75
2021/10/22 21:00:41;;;;;;;15.35;6.70;;;;;;;11.20;47.43;99914.27;1826768;78;21164;-76
2021/10/22 21:03:11;;;;;;;19.62;8.58;;;;;;;11.11;47.66;99918.61;1826575;78;21145;-74
2021/10/22 21:05:39;;;;;;;15.65;7.12;;;;;;;11.05;47.89;99920.83;1807241;78;21204;-75
2021/10/22 21:08:10;;;;;;;17.92;7.35;;;;;;;11.01;48.13;99922.27;1787770;80;21148;-75
2021/10/22 21:10:39;;;;;;;18.45;8.00;;;;;;;10.97;48.17;99922.38;1767966;79;21139;-74
2021/10/22 21:13:09;;;;;;;21.15;7.97;;;;;;;10.97;48.13;99923.75;1815605;79;21132;-73
2021/10/22 21:15:40;;;;;;;25.17;8.65;;;;;;;10.98;48.01;99919.12;1826558;78;21157;-76
2021/10/22 21:18:12;;;;;;;20.88;8.43;;;;;;;11.01;47.91;99915.42;1827120;78;21162;-74
2021/10/22 21:20:42;;;;;;;28.57;9.18;;;;;;;11.07;47.82;99911.86;1827120;78;21623;-74
2021/10/22 21:23:10;;;;;;;18.55;8.30;;;;;;;11.13;47.75;99903.84;1826798;78;21180;-75
2021/10/22 21:25:39;;;;;;;17.62;7.60;;;;;;;11.18;47.66;99906.78;1827034;78;21209;-75
2021/10/22 21:28:08;;;;;;;22.25;8.80;;;;;;;11.21;47.67;99900.88;1826829;78;21199;-76
2021/10/22 21:30:38;;;;;;;21.68;8.08;;;;;;;11.27;47.60;99909.09;1826689;78;21165;-75
2021/10/22 21:33:09;;;;;;;21.70;9.35;;;;;;;11.30;47.68;99907.81;1819427;78;21185;-75
2021/10/22 21:35:38;;;;;;;21.77;8.30;;;;;;;11.28;47.65;99910.77;1814336;79;21204;-77
2021/10/22 21:38:07;;;;;;;27.65;10.35;;;;;;;11.27;47.68;99918.69;1813258;79;21141;-76
2021/10/22 21:40:35;;;;;;;23.02;10.00;;;;;;;11.26;47.64;99910.14;1814317;79;21254;-74
2021/10/22 21:43:04;;;;;;;23.62;9.13;;;;;;;11.26;47.57;99911.52;1793936;80;21605;-74
2021/10/22 21:45:33;;;;;;;22.60;8.45;;;;;;;11.28;47.55;99922.27;1820759;79;21118;-74
2021/10/22 21:48:02;;;;;;;22.67;8.10;;;;;;;11.28;47.74;99919.53;1813201;79;21201;-74
2021/10/22 21:50:32;;;;;;;20.15;8.98;;;;;;;11.18;47.94;99916.38;1826947;78;21122;-76
2021/10/22 21:53:01;;;;;;;21.30;8.58;;;;;;;11.09;48.16;99928.94;1827047;78;21220;-75
2021/10/22 21:55:29;;;;;;;17.32;8.15;;;;;;;11.02;48.29;99931.34;1826982;78;21143;-75
2021/10/22 21:57:58;;;;;;;20.10;9.50;;;;;;;10.98;48.34;99925.97;1826825;78;21323;-74
2021/10/22 22:00:27;;;;;;;22.32;8.93;;;;;;;10.94;48.39;99932.41;1826925;78;21164;-74
2021/10/22 22:02:56;;;;;;;25.40;9.40;;;;;;;10.94;48.46;99928.81;1827177;78;21177;-76
2021/10/22 22:05:26;;;;;;;20.30;9.03;;;;;;;10.93;48.62;99931.25;1813563;78;21125;-74
2021/10/22 22:07:55;;;;;;;22.80;8.45;;;;;;;10.92;48.64;99934.52;1826992;78;21147;-75
2021/10/22 22:10:23;;;;;;;19.20;9.28;;;;;;;10.95;48.63;99929.98;1814628;78;21537;-74
2021/10/22 22:12:52;;;;;;;19.42;8.88;;;;;;;10.99;48.66;99935.35;1802030;79;21145;-74
2021/10/22 22:15:21;;;;;;;24.82;10.20;;;;;;;11.01;48.62;99934.61;1812467;79;21142;-75
2021/10/22 22:17:51;;;;;;;24.80;9.28;;;;;;;11.02;48.60;99929.45;1814438;79;21114;-75
2021/10/22 22:20:19;;;;;;;24.37;9.58;;;;;;;11.03;48.61;99930.29;1814337;79;21635;-74
2021/10/22 22:22:48;;;;;;;25.23;10.10;;;;;;;11.05;48.62;99930.92;1814143;79;21213;-75
2021/10/22 22:25:17;;;;;;;24.20;9.38;;;;;;;11.03;48.68;99937.14;1814117;79;21111;-77
2021/10/22 22:27:47;;;;;;;22.37;9.05;;;;;;;11.02;48.72;99932.19;1814257;79;21213;-74
2021/10/22 22:30:16;;;;;;;23.40;10.10;;;;;;;11.02;48.78;99936.30;1814472;79;21238;-75
2021/10/22 22:32:45;;;;;;;23.50;9.70;;;;;;;11.00;48.91;99941.15;1813483;78;21201;-75
2021/10/22 22:35:15;;;;;;;24.57;9.53;;;;;;;10.98;48.95;99942.42;1811696;79;21554;-76
2021/10/22 22:37:43;;;;;;;25.80;9.38;;;;;;;10.95;49.11;99951.06;1811744;79;21138;-75
2021/10/22 22:40:12;;;;;;;23.98;9.38;;;;;;;10.92;49.18;99955.59;1811626;79;21118;-74
2021/10/22 22:42:41;;;;;;;19.62;8.93;;;;;;;10.90;49.33;99946.74;1812172;79;21107;-75
2021/10/22 22:45:14;;;;;;;21.35;8.75;;;;;;;10.91;49.38;99946.53;1811440;79;21138;-72
2021/10/22 22:47:46;;;;;;;22.80;8.13;;;;;;;10.92;49.40;99949.59;1811703;79;21170;-75
2021/10/22 22:50:17;;;;;;;19.98;8.35;;;;;;;10.95;49.46;99951.91;1811755;79;21644;-74
2021/10/22 22:52:45;;;;;;;18.77;8.18;;;;;;;11.01;49.45;99948.84;1811643;79;21677;-73
2021/10/22 22:55:15;;;;;;;16.90;7.10;;;;;;;11.04;49.42;99954.75;1811491;79;21257;-75
2021/10/22 22:57:44;;;;;;;17.32;7.33;;;;;;;11.08;49.45;99949.19;1811652;79;21158;-73
2021/10/22 23:00:13;;;;;;;16.52;7.47;;;;;;;11.13;49.44;99953.19;1811671;79;21244;-73
2021/10/22 23:02:41;;;;;;;18.48;7.47;;;;;;;11.15;49.33;99956.56;1811729;79;21083;-75
2021/10/22 23:05:10;;;;;;;15.72;6.97;;;;;;;11.19;49.39;99959.20;1811425;79;21177;-73
2021/10/22 23:07:40;;;;;;;11.68;6.30;;;;;;;11.21;49.33;99965.31;1811661;79;21217;-76
2021/10/22 23:10:09;;;;;;;18.27;7.10;;;;;;;11.23;49.36;99964.58;1817415;78;21121;-73
2021/10/22 23:12:39;;;;;;;17.23;6.20;;;;;;;11.23;49.41;99965.95;1826527;78;21094;-73
2021/10/22 23:15:09;;;;;;;15.20;5.53;;;;;;;11.26;49.44;99967.73;1826290;78;21169;-73
2021/10/22 23:17:39;;;;;;;13.98;5.78;;;;;;;11.29;49.38;99957.70;1823179;79;21613;-74
2021/10/22 23:20:09;;;;;;;11.35;5.65;;;;;;;11.33;49.34;99963.61;1823448;78;21149;-75
2021/10/22 23:22:38;;;;;;;13.55;5.40;;;;;;;11.33;49.33;99960.87;1823448;79;21192;-74
2021/10/22 23:25:07;;;;;;;16.35;5.95;;;;;;;11.34;49.25;99955.70;1784905;79;21223;-74
2021/10/22 23:27:36;;;;;;;10.65;5.58;;;;;;;11.36;49.29;99956.33;1823406;79;21232;-73
2021/10/22 23:30:05;;;;;;;14.63;5.92;;;;;;;11.38;49.33;99966.03;1823345;78;21162;-74
2021/10/22 23:32:34;;;;;;;15.68;5.83;;;;;;;11.38;49.44;99958.33;1823651;78;21149;-74
2021/10/22 23:35:03;;;;;;;15.45;5.78;;;;;;;11.34;49.05;99961.19;1829741;78;21188;-75
2021/10/22 23:37:32;;;;;;;17.23;6.03;;;;;;;11.35;49.11;99968.36;1829953;78;21081;-76
2021/10/22 23:40:01;;;;;;;12.53;5.62;;;;;;;11.33;48.98;99966.35;1829770;78;21549;-73
2021/10/22 23:42:30;;;;;;;13.70;5.53;;;;;;;11.33;48.97;99969.09;1829411;78;21708;-74
2021/10/22 23:44:58;;;;;;;12.63;5.22;;;;;;;11.31;49.10;99970.68;1829526;78;21259;-72
2021/10/22 23:47:27;;;;;;;15.28;8.25;;;;;;;11.28;49.19;99976.59;1829479;78;21157;-73
2021/10/22 23:49:55;;;;;;;14.28;6.58;;;;;;;11.25;49.40;99978.92;1829511;78;21114;-73
2021/10/22 23:52:24;;;;;;;18.95;8.98;;;;;;;11.21;49.20;99982.61;1829535;78;21118;-73
2021/10/22 23:54:53;;;;;;;17.07;7.42;;;;;;;11.19;49.35;99985.25;1829648;78;21419;-74
2021/10/22 23:57:21;;;;;;;15.20;8.78;;;;;;;11.17;49.12;99983.25;1829797;78;22136;-72
2021/10/22 23:59:50;;;;;;;16.35;8.20;;;;;;;11.16;49.17;99979.66;1829578;78;21114;-73
